Terminal Aerodrome Forecast
Issued by NWS

Home | Current Version | Previous Version | Text Only | Print | Product List | Glossary On
Versions: 1 2 3 4 5 6 7 8 9 10 11 12 13 14 15
077
FTUS46 KMTR 111130
TAFSTS
TAF
KSTS 111130Z 1112/1212 VRB03KT P6SM FEW200
     FM112100 20004KT P6SM FEW200
     FM120400 00000KT P6SM BKN200=

USA.gov is the U.S. government's official web portal to all federal, state and local government web resources and services.